sensor_id;sensor_type;location;lat;lon;timestamp;P1;durP1;ratioP1;P2;durP2;ratioP2
42886;SDS011;29032;56.028;92.904;2024-02-15T00:04:07;10.17;;;4.40;;
42886;SDS011;29032;56.028;92.904;2024-02-15T00:09:11;13.73;;;6.27;;
42886;SDS011;29032;56.028;92.904;2024-02-15T00:14:13;15.83;;;6.97;;
42886;SDS011;29032;56.028;92.904;2024-02-15T00:19:15;13.73;;;7.43;;
42886;SDS011;29032;56.028;92.904;2024-02-15T00:24:18;9.27;;;4.87;;
42886;SDS011;29032;56.028;92.904;2024-02-15T00:29:21;14.40;;;6.43;;
42886;SDS011;29032;56.028;92.904;2024-02-15T00:34:23;18.03;;;7.80;;
42886;SDS011;29032;56.028;92.904;2024-02-15T00:39:26;12.83;;;6.47;;
42886;SDS011;29032;56.028;92.904;2024-02-15T00:44:28;17.60;;;6.17;;
42886;SDS011;29032;56.028;92.904;2024-02-15T00:49:31;14.97;;;6.50;;
42886;SDS011;29032;56.028;92.904;2024-02-15T00:54:34;13.90;;;6.67;;
42886;SDS011;29032;56.028;92.904;2024-02-15T00:59:36;18.97;;;7.73;;
42886;SDS011;29032;56.028;92.904;2024-02-15T01:04:39;16.27;;;7.07;;
42886;SDS011;29032;56.028;92.904;2024-02-15T01:09:42;12.80;;;5.07;;
42886;SDS011;29032;56.028;92.904;2024-02-15T01:14:44;11.17;;;4.97;;
42886;SDS011;29032;56.028;92.904;2024-02-15T01:19:46;13.37;;;6.80;;
42886;SDS011;29032;56.028;92.904;2024-02-15T01:24:50;16.40;;;7.33;;
42886;SDS011;29032;56.028;92.904;2024-02-15T01:30:11;15.80;;;8.30;;
42886;SDS011;29032;56.028;92.904;2024-02-15T01:35:13;19.57;;;9.40;;
42886;SDS011;29032;56.028;92.904;2024-02-15T01:40:17;13.40;;;6.57;;
42886;SDS011;29032;56.028;92.904;2024-02-15T01:45:19;12.90;;;6.50;;
42886;SDS011;29032;56.028;92.904;2024-02-15T01:50:21;14.67;;;6.43;;
42886;SDS011;29032;56.028;92.904;2024-02-15T01:55:26;10.27;;;6.23;;
42886;SDS011;29032;56.028;92.904;2024-02-15T02:00:29;11.93;;;5.80;;
42886;SDS011;29032;56.028;92.904;2024-02-15T02:05:32;19.33;;;9.70;;
42886;SDS011;29032;56.028;92.904;2024-02-15T02:10:35;17.47;;;8.43;;
42886;SDS011;29032;56.028;92.904;2024-02-15T02:15:38;16.50;;;8.40;;
42886;SDS011;29032;56.028;92.904;2024-02-15T02:20:40;13.87;;;7.20;;
42886;SDS011;29032;56.028;92.904;2024-02-15T02:25:44;11.47;;;6.87;;
42886;SDS011;29032;56.028;92.904;2024-02-15T02:30:46;16.17;;;6.80;;
42886;SDS011;29032;56.028;92.904;2024-02-15T02:35:48;10.70;;;5.77;;
42886;SDS011;29032;56.028;92.904;2024-02-15T02:40:52;18.03;;;7.27;;
42886;SDS011;29032;56.028;92.904;2024-02-15T02:45:54;15.43;;;6.33;;
42886;SDS011;29032;56.028;92.904;2024-02-15T02:50:56;13.17;;;6.20;;
42886;SDS011;29032;56.028;92.904;2024-02-15T02:56:00;10.67;;;5.40;;
42886;SDS011;29032;56.028;92.904;2024-02-15T03:01:03;12.00;;;5.73;;
42886;SDS011;29032;56.028;92.904;2024-02-15T03:06:05;10.70;;;5.70;;
42886;SDS011;29032;56.028;92.904;2024-02-15T03:11:09;13.17;;;6.17;;
42886;SDS011;29032;56.028;92.904;2024-02-15T03:16:11;9.37;;;5.67;;
42886;SDS011;29032;56.028;92.904;2024-02-15T03:21:13;13.90;;;6.53;;
42886;SDS011;29032;56.028;92.904;2024-02-15T03:26:19;10.87;;;5.57;;
42886;SDS011;29032;56.028;92.904;2024-02-15T03:31:30;10.53;;;4.97;;
42886;SDS011;29032;56.028;92.904;2024-02-15T03:36:33;13.73;;;6.20;;
42886;SDS011;29032;56.028;92.904;2024-02-15T03:41:37;11.03;;;6.10;;
42886;SDS011;29032;56.028;92.904;2024-02-15T03:46:39;8.67;;;5.50;;
42886;SDS011;29032;56.028;92.904;2024-02-15T03:51:41;9.47;;;4.93;;
42886;SDS011;29032;56.028;92.904;2024-02-15T03:56:50;12.80;;;5.03;;
42886;SDS011;29032;56.028;92.904;2024-02-15T04:01:52;11.43;;;5.97;;
42886;SDS011;29032;56.028;92.904;2024-02-15T04:06:55;27.57;;;9.50;;
42886;SDS011;29032;56.028;92.904;2024-02-15T04:11:58;42.37;;;14.67;;
42886;SDS011;29032;56.028;92.904;2024-02-15T04:17:01;17.43;;;7.43;;
42886;SDS011;29032;56.028;92.904;2024-02-15T04:22:03;18.17;;;7.30;;
42886;SDS011;29032;56.028;92.904;2024-02-15T04:27:07;13.10;;;5.77;;
42886;SDS011;29032;56.028;92.904;2024-02-15T04:32:09;21.53;;;8.63;;
42886;SDS011;29032;56.028;92.904;2024-02-15T04:37:12;18.77;;;7.93;;
42886;SDS011;29032;56.028;92.904;2024-02-15T04:42:15;14.20;;;6.73;;
42886;SDS011;29032;56.028;92.904;2024-02-15T04:47:17;8.90;;;6.23;;
42886;SDS011;29032;56.028;92.904;2024-02-15T04:52:19;14.43;;;8.23;;
42886;SDS011;29032;56.028;92.904;2024-02-15T04:57:23;14.77;;;5.77;;
42886;SDS011;29032;56.028;92.904;2024-02-15T05:02:25;14.33;;;7.23;;
42886;SDS011;29032;56.028;92.904;2024-02-15T05:07:27;14.00;;;7.10;;
42886;SDS011;29032;56.028;92.904;2024-02-15T05:12:31;21.97;;;7.10;;
42886;SDS011;29032;56.028;92.904;2024-02-15T05:17:33;9.20;;;4.73;;
42886;SDS011;29032;56.028;92.904;2024-02-15T05:22:35;14.03;;;6.17;;
42886;SDS011;29032;56.028;92.904;2024-02-15T05:27:39;12.40;;;6.50;;
42886;SDS011;29032;56.028;92.904;2024-02-15T05:32:41;15.73;;;7.13;;
42886;SDS011;29032;56.028;92.904;2024-02-15T05:37:43;10.63;;;4.70;;
42886;SDS011;29032;56.028;92.904;2024-02-15T05:42:47;8.27;;;4.20;;
42886;SDS011;29032;56.028;92.904;2024-02-15T05:47:49;10.20;;;5.10;;
42886;SDS011;29032;56.028;92.904;2024-02-15T05:52:51;7.53;;;4.43;;
42886;SDS011;29032;56.028;92.904;2024-02-15T05:57:55;13.90;;;5.43;;
42886;SDS011;29032;56.028;92.904;2024-02-15T06:02:57;9.60;;;4.97;;
42886;SDS011;29032;56.028;92.904;2024-02-15T06:07:59;10.00;;;4.57;;
42886;SDS011;29032;56.028;92.904;2024-02-15T06:13:03;9.23;;;5.03;;
42886;SDS011;29032;56.028;92.904;2024-02-15T06:18:05;8.20;;;4.03;;
42886;SDS011;29032;56.028;92.904;2024-02-15T06:23:07;11.73;;;5.17;;
42886;SDS011;29032;56.028;92.904;2024-02-15T06:28:11;10.43;;;4.80;;
42886;SDS011;29032;56.028;92.904;2024-02-15T06:33:13;8.77;;;4.80;;
42886;SDS011;29032;56.028;92.904;2024-02-15T06:38:15;9.83;;;5.43;;
42886;SDS011;29032;56.028;92.904;2024-02-15T06:43:38;8.60;;;4.17;;
42886;SDS011;29032;56.028;92.904;2024-02-15T06:48:41;9.47;;;4.90;;
42886;SDS011;29032;56.028;92.904;2024-02-15T06:53:43;10.43;;;5.20;;
42886;SDS011;29032;56.028;92.904;2024-02-15T06:58:47;11.03;;;6.33;;
42886;SDS011;29032;56.028;92.904;2024-02-15T07:03:50;13.43;;;5.93;;
42886;SDS011;29032;56.028;92.904;2024-02-15T07:08:53;13.57;;;4.87;;
42886;SDS011;29032;56.028;92.904;2024-02-15T07:13:56;12.30;;;5.93;;
42886;SDS011;29032;56.028;92.904;2024-02-15T07:18:58;10.53;;;5.00;;
42886;SDS011;29032;56.028;92.904;2024-02-15T07:24:01;10.67;;;5.07;;
42886;SDS011;29032;56.028;92.904;2024-02-15T07:29:04;11.97;;;6.17;;
42886;SDS011;29032;56.028;92.904;2024-02-15T07:34:06;8.83;;;4.80;;
42886;SDS011;29032;56.028;92.904;2024-02-15T07:39:09;13.93;;;4.97;;
42886;SDS011;29032;56.028;92.904;2024-02-15T07:44:12;10.27;;;5.20;;
42886;SDS011;29032;56.028;92.904;2024-02-15T07:49:14;7.87;;;4.53;;
42886;SDS011;29032;56.028;92.904;2024-02-15T07:54:17;10.43;;;5.00;;
42886;SDS011;29032;56.028;92.904;2024-02-15T07:59:20;8.83;;;4.63;;
42886;SDS011;29032;56.028;92.904;2024-02-15T08:04:23;13.17;;;5.77;;
42886;SDS011;29032;56.028;92.904;2024-02-15T08:09:25;13.27;;;5.97;;
42886;SDS011;29032;56.028;92.904;2024-02-15T08:14:29;15.20;;;6.63;;
42886;SDS011;29032;56.028;92.904;2024-02-15T08:19:31;9.07;;;3.97;;
42886;SDS011;29032;56.028;92.904;2024-02-15T08:24:33;9.50;;;5.33;;
42886;SDS011;29032;56.028;92.904;2024-02-15T08:29:36;13.47;;;6.43;;
42886;SDS011;29032;56.028;92.904;2024-02-15T08:34:38;7.73;;;4.73;;
42886;SDS011;29032;56.028;92.904;2024-02-15T08:39:41;12.00;;;5.47;;
42886;SDS011;29032;56.028;92.904;2024-02-15T08:44:44;18.57;;;7.73;;
42886;SDS011;29032;56.028;92.904;2024-02-15T08:49:46;15.37;;;6.57;;
42886;SDS011;29032;56.028;92.904;2024-02-15T08:54:49;25.30;;;8.07;;
42886;SDS011;29032;56.028;92.904;2024-02-15T08:59:53;23.80;;;7.53;;
42886;SDS011;29032;56.028;92.904;2024-02-15T09:04:55;11.40;;;6.57;;
42886;SDS011;29032;56.028;92.904;2024-02-15T09:09:57;13.43;;;6.00;;
42886;SDS011;29032;56.028;92.904;2024-02-15T09:15:01;14.80;;;6.13;;
42886;SDS011;29032;56.028;92.904;2024-02-15T09:20:03;12.50;;;5.37;;
42886;SDS011;29032;56.028;92.904;2024-02-15T09:25:08;12.50;;;5.70;;
42886;SDS011;29032;56.028;92.904;2024-02-15T09:30:12;15.90;;;6.47;;
42886;SDS011;29032;56.028;92.904;2024-02-15T09:35:15;15.93;;;6.93;;
42886;SDS011;29032;56.028;92.904;2024-02-15T09:40:17;17.07;;;6.47;;
42886;SDS011;29032;56.028;92.904;2024-02-15T09:45:22;11.03;;;5.40;;
42886;SDS011;29032;56.028;92.904;2024-02-15T09:50:24;11.77;;;4.80;;
42886;SDS011;29032;56.028;92.904;2024-02-15T09:55:33;8.23;;;5.17;;
42886;SDS011;29032;56.028;92.904;2024-02-15T10:00:37;13.37;;;6.50;;
42886;SDS011;29032;56.028;92.904;2024-02-15T10:05:40;16.97;;;8.00;;
42886;SDS011;29032;56.028;92.904;2024-02-15T10:10:42;19.30;;;8.60;;
42886;SDS011;29032;56.028;92.904;2024-02-15T10:15:46;20.60;;;8.30;;
42886;SDS011;29032;56.028;92.904;2024-02-15T10:20:57;14.57;;;6.97;;
42886;SDS011;29032;56.028;92.904;2024-02-15T10:25:59;19.40;;;8.73;;
42886;SDS011;29032;56.028;92.904;2024-02-15T10:31:05;27.23;;;12.00;;
42886;SDS011;29032;56.028;92.904;2024-02-15T10:36:09;21.60;;;8.03;;
42886;SDS011;29032;56.028;92.904;2024-02-15T10:41:12;18.30;;;8.57;;
42886;SDS011;29032;56.028;92.904;2024-02-15T10:46:15;24.57;;;10.13;;
42886;SDS011;29032;56.028;92.904;2024-02-15T10:51:18;20.47;;;9.40;;
42886;SDS011;29032;56.028;92.904;2024-02-15T10:56:21;18.30;;;8.33;;
42886;SDS011;29032;56.028;92.904;2024-02-15T11:01:29;27.23;;;10.48;;
42886;SDS011;29032;56.028;92.904;2024-02-15T11:06:33;23.53;;;8.63;;
42886;SDS011;29032;56.028;92.904;2024-02-15T11:11:39;15.93;;;7.88;;
42886;SDS011;29032;56.028;92.904;2024-02-15T11:16:44;17.60;;;8.30;;
42886;SDS011;29032;56.028;92.904;2024-02-15T11:21:55;12.43;;;7.30;;
42886;SDS011;29032;56.028;92.904;2024-02-15T11:26:58;28.03;;;9.17;;
42886;SDS011;29032;56.028;92.904;2024-02-15T11:32:02;26.33;;;9.37;;
42886;SDS011;29032;56.028;92.904;2024-02-15T11:37:05;14.83;;;6.83;;
42886;SDS011;29032;56.028;92.904;2024-02-15T11:42:25;18.57;;;7.90;;
42886;SDS011;29032;56.028;92.904;2024-02-15T11:47:30;27.40;;;10.80;;
42886;SDS011;29032;56.028;92.904;2024-02-15T11:52:34;15.87;;;7.90;;
42886;SDS011;29032;56.028;92.904;2024-02-15T11:57:36;31.20;;;10.03;;
42886;SDS011;29032;56.028;92.904;2024-02-15T12:02:40;17.53;;;9.50;;
42886;SDS011;29032;56.028;92.904;2024-02-15T12:08:00;19.83;;;7.37;;
42886;SDS011;29032;56.028;92.904;2024-02-15T12:13:03;20.00;;;7.80;;
42886;SDS011;29032;56.028;92.904;2024-02-15T12:18:17;12.60;;;6.53;;
42886;SDS011;29032;56.028;92.904;2024-02-15T12:23:19;10.60;;;5.13;;
42886;SDS011;29032;56.028;92.904;2024-02-15T12:28:21;19.13;;;7.50;;
42886;SDS011;29032;56.028;92.904;2024-02-15T12:33:25;21.90;;;9.80;;
42886;SDS011;29032;56.028;92.904;2024-02-15T12:38:27;12.20;;;5.73;;
42886;SDS011;29032;56.028;92.904;2024-02-15T12:43:29;11.60;;;7.20;;
42886;SDS011;29032;56.028;92.904;2024-02-15T12:48:33;12.83;;;5.87;;
42886;SDS011;29032;56.028;92.904;2024-02-15T12:53:35;23.23;;;8.73;;
42886;SDS011;29032;56.028;92.904;2024-02-15T12:58:37;17.63;;;7.00;;
42886;SDS011;29032;56.028;92.904;2024-02-15T13:03:41;25.43;;;11.37;;
42886;SDS011;29032;56.028;92.904;2024-02-15T13:08:43;13.87;;;5.73;;
42886;SDS011;29032;56.028;92.904;2024-02-15T13:13:45;24.33;;;8.50;;
42886;SDS011;29032;56.028;92.904;2024-02-15T13:18:49;17.20;;;7.03;;
42886;SDS011;29032;56.028;92.904;2024-02-15T13:23:51;18.60;;;6.73;;
42886;SDS011;29032;56.028;92.904;2024-02-15T13:28:53;14.67;;;6.23;;
42886;SDS011;29032;56.028;92.904;2024-02-15T13:33:56;20.67;;;7.27;;
42886;SDS011;29032;56.028;92.904;2024-02-15T13:38:59;20.13;;;6.77;;
42886;SDS011;29032;56.028;92.904;2024-02-15T13:44:01;20.43;;;8.63;;
42886;SDS011;29032;56.028;92.904;2024-02-15T13:49:05;14.80;;;7.07;;
42886;SDS011;29032;56.028;92.904;2024-02-15T13:54:07;17.90;;;6.70;;
42886;SDS011;29032;56.028;92.904;2024-02-15T13:59:09;6.17;;;3.77;;
42886;SDS011;29032;56.028;92.904;2024-02-15T14:04:12;6.77;;;3.73;;
42886;SDS011;29032;56.028;92.904;2024-02-15T14:09:15;15.87;;;5.07;;
42886;SDS011;29032;56.028;92.904;2024-02-15T14:14:17;7.07;;;3.70;;
42886;SDS011;29032;56.028;92.904;2024-02-15T14:19:20;10.50;;;4.97;;
42886;SDS011;29032;56.028;92.904;2024-02-15T14:29:43;22.70;;;5.73;;
42886;SDS011;29032;56.028;92.904;2024-02-15T14:34:47;10.30;;;5.10;;
42886;SDS011;29032;56.028;92.904;2024-02-15T14:39:50;12.97;;;4.73;;
42886;SDS011;29032;56.028;92.904;2024-02-15T14:44:52;10.67;;;3.90;;
42886;SDS011;29032;56.028;92.904;2024-02-15T14:49:55;10.97;;;4.60;;
42886;SDS011;29032;56.028;92.904;2024-02-15T14:54:58;7.93;;;3.90;;
42886;SDS011;29032;56.028;92.904;2024-02-15T15:00:00;6.97;;;3.83;;
42886;SDS011;29032;56.028;92.904;2024-02-15T15:05:04;10.60;;;4.90;;
42886;SDS011;29032;56.028;92.904;2024-02-15T15:10:07;14.80;;;5.13;;
42886;SDS011;29032;56.028;92.904;2024-02-15T15:15:11;18.10;;;6.63;;
42886;SDS011;29032;56.028;92.904;2024-02-15T15:20:16;12.67;;;4.20;;
42886;SDS011;29032;56.028;92.904;2024-02-15T15:25:18;11.57;;;5.23;;
42886;SDS011;29032;56.028;92.904;2024-02-15T15:30:21;14.90;;;5.40;;
42886;SDS011;29032;56.028;92.904;2024-02-15T15:35:25;12.20;;;5.10;;
42886;SDS011;29032;56.028;92.904;2024-02-15T15:40:33;11.23;;;4.90;;
42886;SDS011;29032;56.028;92.904;2024-02-15T15:45:35;14.87;;;5.23;;
42886;SDS011;29032;56.028;92.904;2024-02-15T15:50:39;14.80;;;4.57;;
42886;SDS011;29032;56.028;92.904;2024-02-15T15:55:41;11.67;;;5.13;;
42886;SDS011;29032;56.028;92.904;2024-02-15T16:00:43;23.37;;;7.43;;
42886;SDS011;29032;56.028;92.904;2024-02-15T16:05:49;15.87;;;5.60;;
42886;SDS011;29032;56.028;92.904;2024-02-15T16:15:53;17.03;;;7.37;;
42886;SDS011;29032;56.028;92.904;2024-02-15T16:20:57;15.50;;;5.83;;
42886;SDS011;29032;56.028;92.904;2024-02-15T16:25:59;16.03;;;5.70;;
42886;SDS011;29032;56.028;92.904;2024-02-15T16:31:01;23.93;;;9.33;;
42886;SDS011;29032;56.028;92.904;2024-02-15T16:36:05;7.50;;;4.00;;
42886;SDS011;29032;56.028;92.904;2024-02-15T16:41:07;19.87;;;6.93;;
42886;SDS011;29032;56.028;92.904;2024-02-15T16:46:10;17.87;;;7.60;;
42886;SDS011;29032;56.028;92.904;2024-02-15T16:51:13;14.13;;;6.33;;
42886;SDS011;29032;56.028;92.904;2024-02-15T16:56:15;13.70;;;4.77;;
42886;SDS011;29032;56.028;92.904;2024-02-15T17:01:19;10.90;;;3.80;;
42886;SDS011;29032;56.028;92.904;2024-02-15T17:06:22;15.53;;;6.10;;
42886;SDS011;29032;56.028;92.904;2024-02-15T17:11:25;21.73;;;6.80;;
42886;SDS011;29032;56.028;92.904;2024-02-15T17:16:29;10.37;;;4.27;;
42886;SDS011;29032;56.028;92.904;2024-02-15T17:21:32;7.47;;;3.57;;
42886;SDS011;29032;56.028;92.904;2024-02-15T17:26:53;5.97;;;2.93;;
42886;SDS011;29032;56.028;92.904;2024-02-15T17:32:13;10.90;;;5.57;;
42886;SDS011;29032;56.028;92.904;2024-02-15T17:37:17;16.57;;;5.43;;
42886;SDS011;29032;56.028;92.904;2024-02-15T17:42:19;21.70;;;6.93;;
42886;SDS011;29032;56.028;92.904;2024-02-15T17:47:21;15.07;;;5.30;;
42886;SDS011;29032;56.028;92.904;2024-02-15T17:52:24;7.63;;;3.63;;
42886;SDS011;29032;56.028;92.904;2024-02-15T17:57:27;11.70;;;4.57;;
42886;SDS011;29032;56.028;92.904;2024-02-15T18:02:29;14.10;;;6.07;;
42886;SDS011;29032;56.028;92.904;2024-02-15T18:07:32;21.77;;;7.70;;
42886;SDS011;29032;56.028;92.904;2024-02-15T18:12:36;21.73;;;6.90;;
42886;SDS011;29032;56.028;92.904;2024-02-15T18:17:38;14.30;;;6.03;;
42886;SDS011;29032;56.028;92.904;2024-02-15T18:22:42;19.10;;;6.77;;
42886;SDS011;29032;56.028;92.904;2024-02-15T18:27:44;10.97;;;5.20;;
42886;SDS011;29032;56.028;92.904;2024-02-15T18:32:46;15.73;;;5.03;;
42886;SDS011;29032;56.028;92.904;2024-02-15T18:37:50;10.70;;;5.13;;
42886;SDS011;29032;56.028;92.904;2024-02-15T18:42:53;6.27;;;4.17;;
42886;SDS011;29032;56.028;92.904;2024-02-15T18:47:55;13.90;;;4.83;;
42886;SDS011;29032;56.028;92.904;2024-02-15T18:52:58;15.10;;;5.07;;
42886;SDS011;29032;56.028;92.904;2024-02-15T18:58:00;9.60;;;4.43;;
42886;SDS011;29032;56.028;92.904;2024-02-15T19:03:03;7.63;;;3.17;;
42886;SDS011;29032;56.028;92.904;2024-02-15T19:08:07;9.97;;;3.77;;
42886;SDS011;29032;56.028;92.904;2024-02-15T19:13:09;9.53;;;3.57;;
42886;SDS011;29032;56.028;92.904;2024-02-15T19:18:11;13.37;;;3.97;;
42886;SDS011;29032;56.028;92.904;2024-02-15T19:23:15;9.27;;;4.43;;
42886;SDS011;29032;56.028;92.904;2024-02-15T19:28:17;15.43;;;3.97;;
42886;SDS011;29032;56.028;92.904;2024-02-15T19:33:19;13.07;;;4.30;;
42886;SDS011;29032;56.028;92.904;2024-02-15T19:38:23;9.03;;;3.50;;
42886;SDS011;29032;56.028;92.904;2024-02-15T19:43:25;7.63;;;3.93;;
42886;SDS011;29032;56.028;92.904;2024-02-15T19:48:27;11.10;;;4.73;;
42886;SDS011;29032;56.028;92.904;2024-02-15T19:53:31;6.87;;;3.53;;
42886;SDS011;29032;56.028;92.904;2024-02-15T19:58:33;11.60;;;4.10;;
42886;SDS011;29032;56.028;92.904;2024-02-15T20:03:35;12.07;;;4.37;;
42886;SDS011;29032;56.028;92.904;2024-02-15T20:08:39;7.17;;;3.33;;
42886;SDS011;29032;56.028;92.904;2024-02-15T20:13:41;10.93;;;3.90;;
42886;SDS011;29032;56.028;92.904;2024-02-15T20:24:05;10.50;;;4.07;;
42886;SDS011;29032;56.028;92.904;2024-02-15T20:29:07;10.73;;;4.27;;
42886;SDS011;29032;56.028;92.904;2024-02-15T20:34:09;11.43;;;4.00;;
42886;SDS011;29032;56.028;92.904;2024-02-15T20:39:13;6.77;;;3.30;;
42886;SDS011;29032;56.028;92.904;2024-02-15T20:44:15;8.83;;;3.47;;
42886;SDS011;29032;56.028;92.904;2024-02-15T20:49:18;8.23;;;4.20;;
42886;SDS011;29032;56.028;92.904;2024-02-15T20:54:21;8.27;;;4.43;;
42886;SDS011;29032;56.028;92.904;2024-02-15T20:59:24;12.70;;;4.60;;
42886;SDS011;29032;56.028;92.904;2024-02-15T21:04:26;7.60;;;4.00;;
42886;SDS011;29032;56.028;92.904;2024-02-15T21:09:30;10.17;;;3.90;;
42886;SDS011;29032;56.028;92.904;2024-02-15T21:14:32;7.27;;;4.13;;
42886;SDS011;29032;56.028;92.904;2024-02-15T21:19:34;7.57;;;3.87;;
42886;SDS011;29032;56.028;92.904;2024-02-15T21:24:38;13.67;;;4.70;;
42886;SDS011;29032;56.028;92.904;2024-02-15T21:29:40;8.30;;;4.13;;
42886;SDS011;29032;56.028;92.904;2024-02-15T21:34:42;12.57;;;5.00;;
42886;SDS011;29032;56.028;92.904;2024-02-15T21:39:45;10.77;;;3.80;;
42886;SDS011;29032;56.028;92.904;2024-02-15T21:44:48;12.03;;;4.50;;
42886;SDS011;29032;56.028;92.904;2024-02-15T21:49:50;9.33;;;4.33;;
42886;SDS011;29032;56.028;92.904;2024-02-15T21:54:53;9.13;;;3.43;;
42886;SDS011;29032;56.028;92.904;2024-02-15T21:59:56;6.70;;;3.77;;
42886;SDS011;29032;56.028;92.904;2024-02-15T22:04:58;7.30;;;3.70;;
42886;SDS011;29032;56.028;92.904;2024-02-15T22:10:01;6.57;;;3.27;;
42886;SDS011;29032;56.028;92.904;2024-02-15T22:15:04;10.80;;;4.47;;
42886;SDS011;29032;56.028;92.904;2024-02-15T22:20:07;12.70;;;3.93;;
42886;SDS011;29032;56.028;92.904;2024-02-15T22:25:11;10.43;;;3.90;;
42886;SDS011;29032;56.028;92.904;2024-02-15T22:30:13;11.33;;;4.27;;
42886;SDS011;29032;56.028;92.904;2024-02-15T22:35:16;7.03;;;3.67;;
42886;SDS011;29032;56.028;92.904;2024-02-15T22:40:19;11.97;;;4.83;;
42886;SDS011;29032;56.028;92.904;2024-02-15T22:45:22;9.77;;;3.83;;
42886;SDS011;29032;56.028;92.904;2024-02-15T22:50:24;7.73;;;3.47;;
42886;SDS011;29032;56.028;92.904;2024-02-15T22:55:28;7.90;;;3.27;;
42886;SDS011;29032;56.028;92.904;2024-02-15T23:00:30;9.87;;;3.80;;
42886;SDS011;29032;56.028;92.904;2024-02-15T23:05:32;6.20;;;3.37;;
42886;SDS011;29032;56.028;92.904;2024-02-15T23:10:35;18.60;;;5.97;;
42886;SDS011;29032;56.028;92.904;2024-02-15T23:15:38;7.27;;;4.33;;
42886;SDS011;29032;56.028;92.904;2024-02-15T23:20:40;8.10;;;4.07;;
42886;SDS011;29032;56.028;92.904;2024-02-15T23:25:43;12.50;;;4.90;;
42886;SDS011;29032;56.028;92.904;2024-02-15T23:30:46;6.30;;;3.77;;
42886;SDS011;29032;56.028;92.904;2024-02-15T23:35:48;8.03;;;3.83;;
42886;SDS011;29032;56.028;92.904;2024-02-15T23:40:51;9.80;;;3.70;;
42886;SDS011;29032;56.028;92.904;2024-02-15T23:45:54;8.07;;;4.27;;
42886;SDS011;29032;56.028;92.904;2024-02-15T23:50:56;10.17;;;4.80;;
42886;SDS011;29032;56.028;92.904;2024-02-15T23:55:59;16.27;;;5.50;;
